Terminal Aerodrome Forecast
Issued by NWS

Home | Current Version | Previous Version | Text Only | Print | Product List | Glossary On
Versions: 1 2 3 4 5 6 7 8 9 10 11 12 13 14 15 16 17 18
427
FTUS43 KGRR 271926 AAA
TAFLAN
TAF AMD
KLAN 271926Z 2719/2818 04007KT P6SM FEW025
     FM272000 04011KT P6SM BKN040
     FM280400 05007KT P6SM SKC
     FM281500 04011KT P6SM BKN040=

USA.gov is the U.S. government's official web portal to all federal, state and local government web resources and services.